createdAt,value
2022-11-02T00:00:43.448Z,72.38
2022-11-02T00:03:11.986Z,72.42
2022-11-02T00:05:41.210Z,72.99
2022-11-02T00:08:10.025Z,72.92
2022-11-02T00:10:38.509Z,72.94
2022-11-02T00:13:07.807Z,72.71
2022-11-02T00:15:39.035Z,72.57
2022-11-02T00:18:11.700Z,72.64
2022-11-02T00:20:42.588Z,72.38
2022-11-02T00:23:14.045Z,72.66
2022-11-02T00:25:48.029Z,72.51
2022-11-02T00:28:17.297Z,72.88
2022-11-02T00:30:48.446Z,72.80
2022-11-02T00:33:17.274Z,72.99
2022-11-02T00:35:46.268Z,72.65
2022-11-02T00:38:15.269Z,72.59
2022-11-02T00:40:43.926Z,72.92
2022-11-02T00:43:13.534Z,73.01
2022-11-02T00:45:42.494Z,73.00
2022-11-02T00:48:12.898Z,73.04
2022-11-02T00:50:42.642Z,73.16
2022-11-02T00:53:11.004Z,73.26
2022-11-02T00:55:45.424Z,73.49
2022-11-02T00:58:14.529Z,73.40
2022-11-02T01:00:43.086Z,73.53
2022-11-02T01:03:13.315Z,73.41
2022-11-02T01:05:41.733Z,73.27
2022-11-02T01:08:10.973Z,73.61
2022-11-02T01:10:42.737Z,73.10
2022-11-02T01:13:14.860Z,73.38
2022-11-02T01:15:43.823Z,72.99
2022-11-02T01:18:13.918Z,73.17
2022-11-02T01:20:42.400Z,73.08
2022-11-02T01:23:11.278Z,73.30
2022-11-02T01:25:46.445Z,73.40
2022-11-02T01:28:15.058Z,73.21
2022-11-02T01:30:44.802Z,73.12
2022-11-02T01:33:15.741Z,73.33
2022-11-02T01:35:44.152Z,73.55
2022-11-02T01:38:13.648Z,73.46
2022-11-02T01:40:42.682Z,74.10
2022-11-02T01:43:22.484Z,73.98
2022-11-02T01:45:55.621Z,74.32
2022-11-02T01:48:32.049Z,74.37
2022-11-02T01:51:04.241Z,74.25
2022-11-02T01:53:35.474Z,73.50
2022-11-02T01:56:05.788Z,73.49
2022-11-02T01:58:35.264Z,73.35
2022-11-02T02:01:04.644Z,73.92
2022-11-02T02:03:36.313Z,73.70
2022-11-02T02:06:11.398Z,74.02
2022-11-02T02:08:44.831Z,73.79
2022-11-02T02:11:26.991Z,74.13
2022-11-02T02:13:58.380Z,73.92
2022-11-02T02:16:38.114Z,73.97
2022-11-02T02:19:18.114Z,74.05
2022-11-02T02:22:00.003Z,74.26
2022-11-02T02:24:45.668Z,74.34
2022-11-02T02:27:23.324Z,73.83
2022-11-02T02:30:04.274Z,74.22
2022-11-02T02:32:40.419Z,73.21
2022-11-02T02:35:16.871Z,73.09
2022-11-02T02:37:53.786Z,73.19
2022-11-02T02:40:26.643Z,73.50
2022-11-02T02:42:58.782Z,73.57
2022-11-02T02:45:36.308Z,73.07
2022-11-02T02:48:10.519Z,73.31
2022-11-02T02:50:45.516Z,73.41
2022-11-02T02:53:16.649Z,73.30
2022-11-02T02:55:47.671Z,73.19
2022-11-02T02:58:22.560Z,73.02
2022-11-02T03:00:54.045Z,73.40
2022-11-02T03:03:27.523Z,73.38
2022-11-02T03:06:07.316Z,73.12
2022-11-02T03:08:40.227Z,73.52
2022-11-02T03:11:16.070Z,73.20
2022-11-02T03:14:02.590Z,73.07
2022-11-02T03:16:55.140Z,72.98
2022-11-02T03:19:35.055Z,73.50
2022-11-02T03:22:09.632Z,73.52
2022-11-02T03:24:45.448Z,73.63
2022-11-02T03:27:21.002Z,72.98
2022-11-02T03:29:56.426Z,72.71
2022-11-02T03:32:31.335Z,72.56
2022-11-02T03:35:05.875Z,72.83
2022-11-02T03:37:40.035Z,73.03
2022-11-02T03:40:16.369Z,73.20
2022-11-02T03:42:48.124Z,73.17
2022-11-02T03:45:20.709Z,73.61
2022-11-02T03:47:55.133Z,73.48
2022-11-02T03:50:25.225Z,73.81
2022-11-02T03:52:59.130Z,73.57
2022-11-02T03:55:34.655Z,73.62
2022-11-02T03:58:04.766Z,73.43
2022-11-02T04:00:36.042Z,73.12
2022-11-02T04:03:13.507Z,73.50
2022-11-02T04:05:46.085Z,73.78
2022-11-02T04:08:35.581Z,73.61
2022-11-02T04:11:25.250Z,73.70
2022-11-02T04:14:13.232Z,73.58
2022-11-02T04:16:45.000Z,73.75
2022-11-02T04:19:30.357Z,73.89
2022-11-02T04:22:21.987Z,73.70
2022-11-02T04:25:13.519Z,74.11
2022-11-02T04:27:44.803Z,74.16
2022-11-02T04:30:15.860Z,74.17
2022-11-02T04:33:03.992Z,73.81
2022-11-02T04:35:39.602Z,74.21
2022-11-02T04:38:26.814Z,74.32
2022-11-02T04:41:14.935Z,74.71
2022-11-02T04:43:46.318Z,74.93
2022-11-02T04:46:16.753Z,74.76
2022-11-02T04:48:47.525Z,74.60
2022-11-02T04:51:18.020Z,74.35
2022-11-02T04:53:46.673Z,74.99
2022-11-02T04:56:15.328Z,74.75
2022-11-02T04:58:44.783Z,75.06
2022-11-02T05:01:15.885Z,75.31
2022-11-02T05:03:48.502Z,75.42
2022-11-02T05:06:19.849Z,75.38
2022-11-02T05:08:49.927Z,75.71
2022-11-02T05:11:19.404Z,75.59
2022-11-02T05:13:50.147Z,75.74
2022-11-02T05:16:19.979Z,75.95
2022-11-02T05:18:51.985Z,76.41
2022-11-02T05:21:22.917Z,76.46
2022-11-02T05:23:53.054Z,76.08
2022-11-02T05:26:22.580Z,76.41
2022-11-02T05:28:52.687Z,76.70
2022-11-02T05:31:23.098Z,76.68
2022-11-02T05:33:51.948Z,76.24
2022-11-02T05:36:25.222Z,76.41
2022-11-02T05:38:54.438Z,76.35
2022-11-02T05:41:24.287Z,76.23
2022-11-02T05:43:56.161Z,76.26
2022-11-02T05:46:27.334Z,76.24
2022-11-02T05:48:55.785Z,75.81
2022-11-02T05:51:26.396Z,75.43
2022-11-02T05:53:54.786Z,75.42
2022-11-02T05:56:25.209Z,75.43
2022-11-02T05:58:55.455Z,75.15
2022-11-02T06:01:24.388Z,75.13
2022-11-02T06:03:53.977Z,74.85
2022-11-02T06:06:23.101Z,74.80
2022-11-02T06:08:53.479Z,75.02
2022-11-02T06:11:22.448Z,74.88
2022-11-02T06:13:51.923Z,74.85
2022-11-02T06:16:23.305Z,74.71
2022-11-02T06:18:52.033Z,75.03
2022-11-02T06:21:20.988Z,75.07
2022-11-02T06:23:49.452Z,75.36
2022-11-02T06:26:19.873Z,75.18
2022-11-02T06:28:48.701Z,75.09
2022-11-02T06:31:18.044Z,75.27
2022-11-02T06:33:47.103Z,75.41
2022-11-02T06:36:15.486Z,75.28
2022-11-02T06:38:46.355Z,75.14
2022-11-02T06:41:15.650Z,74.38
2022-11-02T06:43:45.445Z,74.65
2022-11-02T06:46:14.241Z,75.22
2022-11-02T06:48:42.583Z,75.44
2022-11-02T06:51:10.979Z,75.18
2022-11-02T06:53:39.420Z,75.20
2022-11-02T06:56:08.510Z,75.17
2022-11-02T06:58:37.009Z,75.23
2022-11-02T07:01:09.058Z,75.40
2022-11-02T07:03:37.909Z,75.40
2022-11-02T07:06:12.689Z,75.65
2022-11-02T07:08:42.774Z,75.80
2022-11-02T07:11:15.059Z,75.67
2022-11-02T07:13:43.637Z,75.53
2022-11-02T07:16:13.896Z,75.25
2022-11-02T07:18:42.793Z,75.82
2022-11-02T07:21:12.059Z,75.52
2022-11-02T07:23:40.543Z,75.67
2022-11-02T07:26:08.965Z,75.69
2022-11-02T07:28:38.390Z,75.76
2022-11-02T07:31:07.202Z,75.69
2022-11-02T07:33:36.949Z,75.20
2022-11-02T07:36:06.419Z,75.33
2022-11-02T07:38:35.665Z,75.51
2022-11-02T07:41:04.595Z,75.40
2022-11-02T07:43:33.848Z,75.36
2022-11-02T07:46:26.705Z,75.39
2022-11-02T07:48:57.499Z,75.25
2022-11-02T07:51:26.090Z,75.46
2022-11-02T07:53:54.463Z,75.44
2022-11-02T07:56:23.109Z,75.05
2022-11-02T07:58:51.700Z,75.27
2022-11-02T08:01:20.368Z,75.40
2022-11-02T08:03:49.658Z,75.33
2022-11-02T08:06:19.369Z,75.33
2022-11-02T08:08:49.244Z,75.20
2022-11-02T08:11:18.043Z,75.08
2022-11-02T08:13:46.471Z,74.72
2022-11-02T08:16:14.916Z,74.58
2022-11-02T08:18:43.319Z,74.83
2022-11-02T08:21:11.665Z,74.44
2022-11-02T08:23:41.529Z,74.47
2022-11-02T08:26:09.872Z,74.03
2022-11-02T08:28:40.637Z,73.44
2022-11-02T08:31:15.851Z,72.84
2022-11-02T08:33:45.216Z,72.38
2022-11-02T08:36:13.609Z,71.73
2022-11-02T08:38:44.213Z,71.27
2022-11-02T08:41:12.621Z,70.91
2022-11-02T08:43:40.988Z,70.37
2022-11-02T08:46:15.209Z,69.66
2022-11-02T08:48:45.273Z,69.21
2022-11-02T08:51:13.778Z,68.82
2022-11-02T08:53:50.252Z,68.20
2022-11-02T08:56:19.889Z,67.90
2022-11-02T08:58:48.347Z,67.20
2022-11-02T09:01:17.243Z,67.01
2022-11-02T09:03:45.706Z,66.19
2022-11-02T09:06:14.101Z,65.86
2022-11-02T09:08:43.926Z,65.53
2022-11-02T09:11:12.565Z,65.17
2022-11-02T09:13:41.561Z,64.52
2022-11-02T09:16:10.265Z,64.00
2022-11-02T09:18:39.420Z,63.49
2022-11-02T09:21:07.993Z,63.07
2022-11-02T09:23:36.356Z,62.64
2022-11-02T09:26:07.518Z,61.66
2022-11-02T09:28:35.989Z,61.14
2022-11-02T09:31:07.482Z,60.87
2022-11-02T09:33:39.117Z,61.13
2022-11-02T09:36:08.102Z,61.42
2022-11-02T09:38:36.543Z,61.43
2022-11-02T09:41:14.644Z,61.64
2022-11-02T09:43:55.046Z,61.84
2022-11-02T09:46:27.582Z,61.67
2022-11-02T09:48:59.933Z,61.78
2022-11-02T09:51:32.893Z,61.85
2022-11-02T09:54:13.102Z,61.25
2022-11-02T09:56:48.081Z,61.07
2022-11-02T09:59:18.010Z,60.92
2022-11-02T10:01:57.213Z,61.22
2022-11-02T10:04:56.133Z,61.58
2022-11-02T10:07:39.339Z,61.67
2022-11-02T10:10:15.079Z,61.79
2022-11-02T10:12:55.613Z,61.81
2022-11-02T10:15:29.763Z,61.94
2022-11-02T10:18:01.475Z,61.90
2022-11-02T10:20:35.727Z,62.17
2022-11-02T10:23:09.016Z,62.00
2022-11-02T10:25:38.557Z,62.22
2022-11-02T10:28:15.448Z,61.81
2022-11-02T10:30:45.558Z,61.90
2022-11-02T10:33:16.113Z,61.69
2022-11-02T10:36:19.903Z,60.91
2022-11-02T10:38:51.754Z,59.93
2022-11-02T10:41:44.866Z,59.39
2022-11-02T10:44:28.178Z,58.40
2022-11-02T10:47:10.498Z,57.79
2022-11-02T10:50:10.993Z,57.31
2022-11-02T10:52:43.413Z,57.22
2022-11-02T10:55:24.676Z,57.16
2022-11-02T10:57:56.448Z,56.34
2022-11-02T11:00:37.493Z,56.70
2022-11-02T11:03:08.395Z,56.41
2022-11-02T11:05:44.668Z,55.46
2022-11-02T11:08:32.777Z,54.83
2022-11-02T11:11:19.306Z,54.44
2022-11-02T11:16:48.425Z,53.93
2022-11-02T11:19:39.717Z,53.85
2022-11-02T11:22:25.770Z,53.76
2022-11-02T11:24:55.031Z,53.42
2022-11-02T11:27:24.565Z,53.66
2022-11-02T11:29:56.063Z,53.80
2022-11-02T11:32:30.544Z,53.88
2022-11-02T11:35:02.989Z,54.24
2022-11-02T11:37:32.673Z,54.04
2022-11-02T11:40:04.107Z,54.03
2022-11-02T11:42:37.192Z,54.18
2022-11-02T11:45:09.125Z,54.04
2022-11-02T11:47:41.894Z,54.06
2022-11-02T11:50:18.487Z,53.83
2022-11-02T11:53:10.270Z,53.94
2022-11-02T11:55:48.952Z,53.71
2022-11-02T11:58:21.486Z,53.70
2022-11-02T12:01:09.240Z,53.71
2022-11-02T12:03:54.193Z,53.73
2022-11-02T12:06:31.944Z,53.61
2022-11-02T12:09:08.496Z,53.63
2022-11-02T12:11:51.753Z,53.82
2022-11-02T12:14:34.776Z,53.30
2022-11-02T12:17:30.189Z,52.96
2022-11-02T12:20:11.842Z,52.52
2022-11-02T12:22:51.041Z,52.17
2022-11-02T12:25:32.435Z,51.80
2022-11-02T12:28:14.533Z,51.38
2022-11-02T12:30:57.296Z,51.28
2022-11-02T12:33:36.899Z,50.71
2022-11-02T12:36:22.617Z,51.03
2022-11-02T12:38:57.156Z,50.85
2022-11-02T12:41:44.297Z,50.82
2022-11-02T12:44:30.296Z,50.97
2022-11-02T12:47:08.931Z,50.95
2022-11-02T12:49:47.064Z,51.03
2022-11-02T12:52:30.824Z,51.16
2022-11-02T12:55:03.201Z,51.48
2022-11-02T12:57:37.374Z,51.44
2022-11-02T13:00:09.039Z,51.57
2022-11-02T13:02:51.116Z,51.65
2022-11-02T13:05:22.565Z,52.08
2022-11-02T13:08:03.145Z,51.55
2022-11-02T13:10:37.385Z,51.76
2022-11-02T13:13:06.600Z,51.89
2022-11-02T13:15:36.820Z,51.80
2022-11-02T13:18:13.073Z,51.78
2022-11-02T13:20:44.353Z,51.61
2022-11-02T13:23:23.526Z,51.68
2022-11-02T13:25:56.420Z,51.50
2022-11-02T13:28:35.330Z,51.51
2022-11-02T13:31:12.787Z,51.58
2022-11-02T13:33:47.833Z,51.55
2022-11-02T13:36:18.294Z,51.63
2022-11-02T13:38:53.388Z,51.71
2022-11-02T13:41:40.356Z,51.97
2022-11-02T13:44:30.807Z,51.79
2022-11-02T13:47:10.429Z,51.75
2022-11-02T13:49:41.642Z,51.82
2022-11-02T13:52:15.284Z,51.80
2022-11-02T13:54:47.852Z,51.78
2022-11-02T13:57:29.017Z,51.90
2022-11-02T13:59:57.593Z,51.73
2022-11-02T14:02:27.625Z,51.71
2022-11-02T14:04:56.215Z,51.61
2022-11-02T14:07:30.365Z,51.90
2022-11-02T14:10:06.003Z,52.16
2022-11-02T14:12:44.786Z,51.83
2022-11-02T14:15:49.853Z,51.90
2022-11-02T14:18:31.114Z,52.19
2022-11-02T14:21:20.296Z,52.21
2022-11-02T14:23:48.677Z,52.12
2022-11-02T14:26:54.673Z,52.35
2022-11-02T14:29:49.141Z,52.15
2022-11-02T14:32:27.232Z,52.07
2022-11-02T14:35:09.089Z,52.09
2022-11-02T14:37:58.401Z,52.09
2022-11-02T14:40:36.083Z,52.15
2022-11-02T14:43:30.703Z,52.41
2022-11-02T14:46:10.742Z,52.24
2022-11-02T14:48:49.005Z,52.10
2022-11-02T14:51:23.133Z,51.69
2022-11-02T14:53:58.220Z,51.52
2022-11-02T14:56:48.614Z,51.29
2022-11-02T14:59:21.517Z,51.31
2022-11-02T15:01:57.872Z,51.20
2022-11-02T15:04:27.294Z,51.35
2022-11-02T15:06:57.869Z,50.81
2022-11-02T15:09:58.417Z,50.92
2022-11-02T15:12:41.669Z,50.91
2022-11-02T15:15:34.679Z,51.16
2022-11-02T15:18:33.775Z,51.37
2022-11-02T15:21:29.914Z,51.73
2022-11-02T15:24:11.037Z,53.22
2022-11-02T15:26:48.461Z,52.48
2022-11-02T15:29:26.673Z,52.57
2022-11-02T15:31:59.092Z,52.94
2022-11-02T15:34:35.564Z,53.24
2022-11-02T15:37:05.257Z,53.56
2022-11-02T15:39:34.850Z,53.89
2022-11-02T15:42:14.729Z,54.32
2022-11-02T15:45:26.935Z,54.62
2022-11-02T15:48:16.025Z,55.16
2022-11-02T15:50:55.429Z,55.28
2022-11-02T15:53:47.601Z,55.62
2022-11-02T15:56:40.363Z,56.21
2022-11-02T15:59:33.324Z,56.56
2022-11-02T16:02:17.385Z,57.01
2022-11-02T16:04:49.675Z,57.21
2022-11-02T16:07:19.013Z,57.58
2022-11-02T16:09:48.078Z,57.77
2022-11-02T16:12:18.999Z,57.99
2022-11-02T16:14:54.287Z,58.32
2022-11-02T16:17:25.816Z,58.68
2022-11-02T16:20:12.210Z,58.88
2022-11-02T16:22:42.181Z,59.41
2022-11-02T16:25:15.229Z,59.48
2022-11-02T16:27:44.497Z,59.84
2022-11-02T16:30:20.588Z,59.90
2022-11-02T16:32:52.841Z,60.40
2022-11-02T16:35:22.626Z,60.31
2022-11-02T16:37:52.256Z,60.55
2022-11-02T16:40:21.760Z,60.66
2022-11-02T16:42:54.523Z,60.71
2022-11-02T16:45:42.294Z,60.71
2022-11-02T16:48:26.483Z,60.86
2022-11-02T16:51:11.961Z,61.32
2022-11-02T16:53:44.054Z,61.65
2022-11-02T16:56:27.623Z,61.72
2022-11-02T16:59:03.124Z,61.68
2022-11-02T17:01:38.854Z,61.87
2022-11-02T17:04:21.452Z,61.93
2022-11-02T17:06:54.758Z,62.04
2022-11-02T17:09:28.951Z,62.33
2022-11-02T17:12:00.468Z,62.64
2022-11-02T17:14:30.277Z,62.76
2022-11-02T17:17:04.674Z,62.54
2022-11-02T17:19:47.736Z,62.88
2022-11-02T17:22:25.066Z,63.04
2022-11-02T17:25:05.345Z,63.16
2022-11-02T17:27:39.187Z,63.10
2022-11-02T17:30:44.613Z,63.68
2022-11-02T17:33:34.673Z,63.68
2022-11-02T17:36:08.489Z,64.12
2022-11-02T17:38:39.551Z,64.15
2022-11-02T17:41:28.166Z,64.29
2022-11-02T17:43:56.208Z,64.16
2022-11-02T17:46:25.272Z,64.25
2022-11-02T17:48:54.793Z,64.63
2022-11-02T17:51:25.623Z,64.72
2022-11-02T17:53:56.012Z,64.85
2022-11-02T17:56:25.112Z,65.10
2022-11-02T17:58:54.140Z,65.32
2022-11-02T18:01:22.625Z,64.96
2022-11-02T18:03:51.834Z,65.09
2022-11-02T18:06:20.246Z,65.13
2022-11-02T18:09:07.008Z,65.01
2022-11-02T18:11:36.915Z,65.51
2022-11-02T18:14:05.731Z,65.50
2022-11-02T18:16:34.079Z,65.31
2022-11-02T18:19:03.455Z,65.17
2022-11-02T18:21:31.881Z,65.30
2022-11-02T18:24:00.684Z,65.27
2022-11-02T18:26:29.069Z,65.16
2022-11-02T18:28:59.205Z,65.07
2022-11-02T18:31:27.618Z,65.31
2022-11-02T18:33:56.646Z,65.00
2022-11-02T18:36:25.857Z,65.11
2022-11-02T18:38:54.231Z,65.50
2022-11-02T18:41:32.415Z,65.94
2022-11-02T18:44:08.861Z,65.76
2022-11-02T18:46:41.060Z,65.81
2022-11-02T18:49:09.437Z,65.88
2022-11-02T18:51:37.802Z,66.03
2022-11-02T18:54:07.448Z,65.98
2022-11-02T18:56:36.230Z,66.23
2022-11-02T18:59:06.766Z,66.23
2022-11-02T19:01:35.320Z,66.35
2022-11-02T19:04:04.289Z,66.44
2022-11-02T19:06:52.168Z,66.62
2022-11-02T19:09:24.314Z,66.55
2022-11-02T19:11:56.702Z,66.38
2022-11-02T19:14:27.884Z,66.56
2022-11-02T19:16:56.764Z,66.58
2022-11-02T19:19:25.303Z,65.91
2022-11-02T19:21:54.350Z,65.68
2022-11-02T19:24:22.749Z,66.15
2022-11-02T19:26:52.606Z,66.15
2022-11-02T19:29:21.119Z,66.58
2022-11-02T19:31:51.719Z,66.56
2022-11-02T19:34:20.440Z,66.76
2022-11-02T19:36:48.836Z,66.87
2022-11-02T19:39:17.555Z,66.99
2022-11-02T19:41:48.725Z,67.01
2022-11-02T19:44:17.405Z,67.23
2022-11-02T19:46:46.548Z,67.36
2022-11-02T19:49:16.919Z,67.31
2022-11-02T19:51:45.358Z,67.44
2022-11-02T19:54:14.352Z,67.47
2022-11-02T19:56:42.793Z,67.34
2022-11-02T19:59:12.140Z,67.06
2022-11-02T20:01:42.542Z,66.98
2022-11-02T20:04:12.037Z,67.08
2022-11-02T20:06:43.181Z,66.70
2022-11-02T20:09:15.898Z,66.64
2022-11-02T20:11:46.272Z,66.72
2022-11-02T20:14:16.331Z,66.55
2022-11-02T20:16:50.232Z,66.35
2022-11-02T20:19:27.002Z,66.50
2022-11-02T20:21:58.022Z,66.55
2022-11-02T20:24:26.847Z,66.89
2022-11-02T20:27:01.228Z,66.93
2022-11-02T20:29:30.688Z,67.22
2022-11-02T20:31:59.223Z,67.29
2022-11-02T20:34:28.325Z,67.41
2022-11-02T20:36:58.341Z,67.15
2022-11-02T20:39:27.126Z,67.28
2022-11-02T20:41:57.063Z,67.38
2022-11-02T20:44:25.511Z,67.33
2022-11-02T20:46:54.369Z,67.15
2022-11-02T20:49:48.860Z,67.04
2022-11-02T20:52:13.733Z,67.33
2022-11-02T20:54:42.593Z,67.64
2022-11-02T20:57:11.375Z,67.52
2022-11-02T20:59:39.892Z,67.52
2022-11-02T21:02:10.926Z,67.63
2022-11-02T21:04:40.256Z,67.69
2022-11-02T21:07:08.930Z,67.79
2022-11-02T21:09:38.692Z,67.50
2022-11-02T21:12:40.354Z,67.38
2022-11-02T21:15:09.490Z,66.78
2022-11-02T21:17:38.196Z,66.54
2022-11-02T21:23:00.369Z,66.25
2022-11-02T21:25:32.224Z,66.15
2022-11-02T21:28:01.189Z,65.83
2022-11-02T21:30:31.944Z,65.84
2022-11-02T21:33:00.845Z,66.03
2022-11-02T21:35:29.275Z,65.88
2022-11-02T21:38:01.352Z,66.17
2022-11-02T21:40:33.881Z,66.53
2022-11-02T21:43:02.378Z,66.43
2022-11-02T21:45:36.626Z,66.33
2022-11-02T21:48:06.502Z,66.43
2022-11-02T21:50:35.245Z,66.44
2022-11-02T21:53:03.793Z,66.16
2022-11-02T21:55:33.785Z,66.27
2022-11-02T21:58:03.259Z,66.24
2022-11-02T22:00:46.020Z,65.96
2022-11-02T22:03:14.498Z,65.93
2022-11-02T22:05:56.173Z,66.42
2022-11-02T22:08:39.916Z,66.34
2022-11-02T22:11:12.819Z,66.23
2022-11-02T22:13:42.219Z,66.33
2022-11-02T22:16:13.344Z,66.36
2022-11-02T22:18:43.001Z,66.13
2022-11-02T22:21:12.157Z,66.35
2022-11-02T22:23:41.119Z,66.36
2022-11-02T22:26:14.432Z,66.12
2022-11-02T22:28:45.215Z,65.99
2022-11-02T22:31:16.862Z,66.30
2022-11-02T22:33:45.674Z,66.18
2022-11-02T22:36:16.341Z,66.11
2022-11-02T22:38:51.880Z,66.32
2022-11-02T22:41:24.510Z,66.28
2022-11-02T22:43:55.061Z,66.08
2022-11-02T22:46:24.521Z,66.37
2022-11-02T22:48:55.371Z,66.15
2022-11-02T22:51:26.363Z,66.29
2022-11-02T22:53:55.198Z,66.43
2022-11-02T22:56:25.107Z,66.31
2022-11-02T22:58:54.285Z,66.36
2022-11-02T23:01:25.132Z,66.69
2022-11-02T23:03:54.260Z,66.67
2022-11-02T23:06:24.216Z,66.58
2022-11-02T23:08:55.160Z,66.48
2022-11-02T23:11:26.780Z,66.35
2022-11-02T23:13:58.614Z,66.53
2022-11-02T23:16:29.369Z,66.46
2022-11-02T23:19:20.634Z,66.10
2022-11-02T23:22:16.065Z,66.07
2022-11-02T23:25:04.046Z,66.17
2022-11-02T23:27:35.720Z,66.07
2022-11-02T23:30:22.429Z,66.19
2022-11-02T23:32:50.822Z,66.11
2022-11-02T23:35:37.561Z,66.18
2022-11-02T23:38:08.087Z,66.51
2022-11-02T23:40:36.432Z,66.60
2022-11-02T23:43:08.020Z,66.89
2022-11-02T23:45:36.529Z,66.75
2022-11-02T23:48:07.573Z,66.97
2022-11-02T23:50:54.789Z,67.18
2022-11-02T23:53:42.072Z,66.86
2022-11-02T23:56:33.545Z,66.68
2022-11-02T23:59:08.979Z,66.69
